createdAt,value
2022-11-23T00:01:15.912Z,88.13
2022-11-23T00:04:19.041Z,88.46
2022-11-23T00:07:21.677Z,88.52
2022-11-23T00:10:24.700Z,88.37
2022-11-23T00:13:27.722Z,88.11
2022-11-23T00:19:47.660Z,88.22
2022-11-23T00:22:50.526Z,88.13
2022-11-23T00:25:53.146Z,88.10
2022-11-23T00:28:57.375Z,88.22
2022-11-23T00:32:01.926Z,88.42
2022-11-23T00:35:05.350Z,88.33
2022-11-23T00:38:08.956Z,89.09
2022-11-23T00:41:14.755Z,89.00
2022-11-23T00:44:17.698Z,89.15
2022-11-23T00:47:20.518Z,89.27
2022-11-23T00:50:23.169Z,89.91
2022-11-23T00:53:26.562Z,90.09
2022-11-23T00:56:30.561Z,90.06
2022-11-23T00:59:33.795Z,89.59
2022-11-23T01:02:37.967Z,89.72
2022-11-23T01:05:41.419Z,89.41
2022-11-23T01:08:50.810Z,89.93
2022-11-23T01:11:54.589Z,90.11
2022-11-23T01:14:59.088Z,90.00
2022-11-23T01:18:01.933Z,89.88
2022-11-23T01:21:06.950Z,89.73
2022-11-23T01:24:14.529Z,89.41
2022-11-23T01:27:17.106Z,89.15
2022-11-23T01:30:20.079Z,89.24
2022-11-23T01:33:22.735Z,89.22
2022-11-23T01:36:28.134Z,88.84
2022-11-23T01:39:31.000Z,89.39
2022-11-23T01:42:55.155Z,89.03
2022-11-23T01:45:59.766Z,89.28
2022-11-23T01:49:06.861Z,88.99
2022-11-23T01:52:17.620Z,88.85
2022-11-23T01:55:21.841Z,89.28
2022-11-23T01:58:27.003Z,89.48
2022-11-23T02:01:30.357Z,89.11
2022-11-23T02:04:37.671Z,89.23
2022-11-23T02:07:42.895Z,89.29
2022-11-23T02:10:45.802Z,89.10
2022-11-23T02:13:51.545Z,89.21
2022-11-23T02:16:54.417Z,89.35
2022-11-23T02:20:13.114Z,89.45
2022-11-23T02:23:38.838Z,89.34
2022-11-23T02:26:42.104Z,89.33
2022-11-23T02:29:45.061Z,89.45
2022-11-23T02:32:48.194Z,89.64
2022-11-23T02:35:59.036Z,89.64
2022-11-23T02:39:06.971Z,89.95
2022-11-23T02:42:09.504Z,89.58
2022-11-23T02:45:29.020Z,89.18
2022-11-23T02:48:31.523Z,89.04
2022-11-23T02:51:34.571Z,88.57
2022-11-23T02:54:38.008Z,88.31
2022-11-23T02:57:40.926Z,88.21
2022-11-23T03:00:45.643Z,88.17
2022-11-23T03:03:48.676Z,87.75
2022-11-23T03:06:51.482Z,87.67
2022-11-23T03:09:54.406Z,87.96
2022-11-23T03:12:57.233Z,87.83
2022-11-23T03:16:00.524Z,87.74
2022-11-23T03:19:04.706Z,87.94
2022-11-23T03:22:08.740Z,88.03
2022-11-23T03:25:13.686Z,87.98
2022-11-23T03:28:20.212Z,88.12
2022-11-23T03:31:22.926Z,88.36
2022-11-23T03:34:25.954Z,87.85
2022-11-23T03:37:28.598Z,88.26
2022-11-23T03:40:32.262Z,88.04
2022-11-23T03:43:36.185Z,88.17
2022-11-23T03:46:39.105Z,87.77
2022-11-23T03:49:41.834Z,87.83
2022-11-23T03:52:45.059Z,87.37
2022-11-23T03:55:47.897Z,87.70
2022-11-23T03:58:51.121Z,87.11
2022-11-23T04:01:54.304Z,86.83
2022-11-23T04:04:59.704Z,86.78
2022-11-23T04:08:04.507Z,87.16
2022-11-23T04:11:07.645Z,86.60
2022-11-23T04:14:11.772Z,86.50
2022-11-23T04:17:14.785Z,85.89
2022-11-23T04:20:17.371Z,86.39
2022-11-23T04:23:20.354Z,85.96
2022-11-23T04:26:23.528Z,85.43
2022-11-23T04:29:26.596Z,84.85
2022-11-23T04:32:29.527Z,85.63
2022-11-23T04:35:32.545Z,85.75
2022-11-23T04:38:35.150Z,86.33
2022-11-23T04:41:39.072Z,86.11
2022-11-23T04:44:41.792Z,86.34
2022-11-23T04:47:44.706Z,85.98
2022-11-23T04:50:49.122Z,85.39
2022-11-23T04:53:54.706Z,85.52
2022-11-23T04:57:00.149Z,85.68
2022-11-23T05:00:08.982Z,85.65
2022-11-23T05:03:12.015Z,85.72
2022-11-23T05:06:15.028Z,85.08
2022-11-23T05:09:17.782Z,85.23
2022-11-23T05:12:21.779Z,84.90
2022-11-23T05:15:24.754Z,85.29
2022-11-23T05:18:28.749Z,85.50
2022-11-23T05:21:31.405Z,85.66
2022-11-23T05:24:34.930Z,85.44
2022-11-23T05:27:38.738Z,85.68
2022-11-23T05:30:42.368Z,86.01
2022-11-23T05:33:45.520Z,86.19
2022-11-23T05:36:50.568Z,85.59
2022-11-23T05:39:53.829Z,85.39
2022-11-23T05:42:57.799Z,85.17
2022-11-23T05:46:01.110Z,85.50
2022-11-23T05:49:05.015Z,84.93
2022-11-23T05:52:08.363Z,84.68
2022-11-23T05:55:12.285Z,85.03
2022-11-23T05:58:15.106Z,85.03
2022-11-23T06:01:18.261Z,84.90
2022-11-23T06:04:21.576Z,84.40
2022-11-23T06:07:24.463Z,84.80
2022-11-23T06:10:28.526Z,84.88
2022-11-23T06:13:31.422Z,84.60
2022-11-23T06:16:35.145Z,84.58
2022-11-23T06:19:38.633Z,84.14
2022-11-23T06:22:41.808Z,84.26
2022-11-23T06:25:44.472Z,84.64
2022-11-23T06:28:48.149Z,84.68
2022-11-23T06:31:55.061Z,84.74
2022-11-23T06:35:01.027Z,84.98
2022-11-23T06:38:07.031Z,85.29
2022-11-23T06:41:10.117Z,86.00
2022-11-23T06:44:13.942Z,86.22
2022-11-23T06:47:21.953Z,86.78
2022-11-23T06:50:30.964Z,86.93
2022-11-23T06:53:34.643Z,87.21
2022-11-23T06:56:37.647Z,87.67
2022-11-23T06:59:44.534Z,87.31
2022-11-23T07:02:55.735Z,87.41
2022-11-23T07:06:01.102Z,87.43
2022-11-23T07:09:05.809Z,87.84
2022-11-23T07:12:12.256Z,88.19
2022-11-23T07:15:15.238Z,88.29
2022-11-23T07:18:18.609Z,88.83
2022-11-23T07:21:21.872Z,89.15
2022-11-23T07:24:25.601Z,89.59
2022-11-23T07:27:28.470Z,89.84
2022-11-23T07:30:32.772Z,90.51
2022-11-23T07:33:35.609Z,90.76
2022-11-23T07:36:39.035Z,90.59
2022-11-23T07:39:56.781Z,90.85
2022-11-23T07:43:02.052Z,90.99
2022-11-23T07:46:04.719Z,90.89
2022-11-23T07:49:07.720Z,91.63
2022-11-23T07:52:10.721Z,91.38
2022-11-23T07:55:13.640Z,91.70
2022-11-23T07:58:16.410Z,92.09
2022-11-23T08:01:20.127Z,92.11
2022-11-23T08:04:23.393Z,92.32
2022-11-23T08:07:25.982Z,92.42
2022-11-23T08:10:30.572Z,92.17
2022-11-23T08:13:34.866Z,92.78
2022-11-23T08:16:38.038Z,93.23
2022-11-23T08:19:40.572Z,92.99
2022-11-23T08:22:43.477Z,92.77
2022-11-23T08:25:46.126Z,92.65
2022-11-23T08:28:49.176Z,92.66
2022-11-23T08:31:51.940Z,92.92
2022-11-23T08:34:54.842Z,93.12
2022-11-23T08:37:57.429Z,93.39
2022-11-23T08:41:01.691Z,93.97
2022-11-23T08:44:05.142Z,93.82
2022-11-23T08:47:08.032Z,94.01
2022-11-23T08:50:10.788Z,93.95
2022-11-23T08:53:13.739Z,93.80
2022-11-23T08:56:16.323Z,93.53
2022-11-23T08:59:19.484Z,93.80
2022-11-23T09:02:22.203Z,93.78
2022-11-23T09:05:25.696Z,93.69
2022-11-23T09:08:29.239Z,94.03
2022-11-23T09:11:32.474Z,94.05
2022-11-23T09:14:35.401Z,93.79
2022-11-23T09:17:38.551Z,93.73
2022-11-23T09:20:41.188Z,93.86
2022-11-23T09:23:44.056Z,93.71
2022-11-23T09:26:49.232Z,93.72
2022-11-23T09:29:52.151Z,93.43
2022-11-23T09:32:58.251Z,93.36
2022-11-23T09:36:04.593Z,93.29
2022-11-23T09:39:07.434Z,93.43
2022-11-23T09:42:32.055Z,93.15
2022-11-23T09:45:50.135Z,93.52
2022-11-23T09:49:19.268Z,93.09
2022-11-23T09:52:24.302Z,93.04
2022-11-23T09:55:43.988Z,93.42
2022-11-23T09:58:46.818Z,93.50
2022-11-23T10:01:50.267Z,93.78
2022-11-23T10:04:53.992Z,93.71
2022-11-23T10:08:25.432Z,93.58
2022-11-23T10:13:10.297Z,93.65
2022-11-23T10:16:49.797Z,93.79
2022-11-23T10:20:13.953Z,93.94
2022-11-23T10:23:46.224Z,94.18
2022-11-23T10:26:50.905Z,94.42
2022-11-23T10:29:56.617Z,94.05
2022-11-23T10:33:04.485Z,94.22
2022-11-23T10:36:11.335Z,94.04
2022-11-23T10:39:19.513Z,94.13
2022-11-23T10:42:42.572Z,93.96
2022-11-23T10:45:46.426Z,94.08
2022-11-23T10:48:49.529Z,94.00
2022-11-23T10:51:56.568Z,94.34
2022-11-23T10:55:04.210Z,94.15
2022-11-23T10:58:28.551Z,94.05
2022-11-23T11:01:31.561Z,94.64
2022-11-23T11:04:34.375Z,94.27
2022-11-23T11:07:38.471Z,94.60
2022-11-23T11:10:50.188Z,94.35
2022-11-23T11:14:03.652Z,94.48
2022-11-23T11:17:26.469Z,94.71
2022-11-23T11:20:33.263Z,95.00
2022-11-23T11:23:40.796Z,94.72
2022-11-23T11:26:58.812Z,94.42
2022-11-23T11:30:18.985Z,94.60
2022-11-23T11:33:43.665Z,94.58
2022-11-23T11:37:00.992Z,94.58
2022-11-23T11:40:29.015Z,94.62
2022-11-23T11:44:06.216Z,94.53
2022-11-23T11:47:34.354Z,94.03
2022-11-23T11:50:43.809Z,94.16
2022-11-23T11:54:01.865Z,93.80
2022-11-23T11:57:10.527Z,93.89
2022-11-23T12:00:18.215Z,94.24
2022-11-23T12:03:39.479Z,94.17
2022-11-23T12:07:00.943Z,93.66
2022-11-23T12:10:12.129Z,94.02
2022-11-23T12:13:23.958Z,94.11
2022-11-23T12:17:31.470Z,94.14
2022-11-23T12:20:38.207Z,93.93
2022-11-23T12:24:05.457Z,94.08
2022-11-23T12:27:23.084Z,94.00
2022-11-23T12:30:44.368Z,93.98
2022-11-23T12:34:11.349Z,94.02
2022-11-23T12:37:32.193Z,94.52
2022-11-23T12:41:08.349Z,94.52
2022-11-23T12:44:37.314Z,94.34
2022-11-23T12:48:15.732Z,94.92
2022-11-23T12:51:23.577Z,95.03
2022-11-23T12:54:35.208Z,95.33
2022-11-23T12:57:52.698Z,94.65
2022-11-23T13:01:06.411Z,94.56
2022-11-23T13:04:51.304Z,94.90
2022-11-23T13:08:22.220Z,95.33
2022-11-23T13:11:31.282Z,95.44
2022-11-23T13:15:03.042Z,95.62
2022-11-23T13:18:36.435Z,95.31
2022-11-23T13:21:42.313Z,95.26
2022-11-23T13:25:21.064Z,94.98
2022-11-23T13:28:31.606Z,95.23
2022-11-23T13:31:36.251Z,95.41
2022-11-23T13:34:45.777Z,95.07
2022-11-23T13:37:57.532Z,95.30
2022-11-23T13:41:01.052Z,95.48
2022-11-23T13:44:19.615Z,95.69
2022-11-23T13:47:22.255Z,95.65
2022-11-23T13:50:26.431Z,95.62
2022-11-23T13:53:39.902Z,95.82
2022-11-23T13:56:44.496Z,95.59
2022-11-23T13:59:47.210Z,95.82
2022-11-23T14:02:50.364Z,95.78
2022-11-23T14:06:01.927Z,95.75
2022-11-23T14:09:13.170Z,95.76
2022-11-23T14:12:28.030Z,95.77
2022-11-23T14:15:34.103Z,95.68
2022-11-23T14:18:54.528Z,95.96
2022-11-23T14:22:04.239Z,96.18
2022-11-23T14:25:32.286Z,95.98
2022-11-23T14:28:55.272Z,96.24
2022-11-23T14:32:16.710Z,96.35
2022-11-23T14:35:33.463Z,96.29
2022-11-23T14:38:38.555Z,96.43
2022-11-23T14:41:42.646Z,96.64
2022-11-23T14:44:46.005Z,96.79
2022-11-23T14:47:49.031Z,96.76
2022-11-23T14:51:23.675Z,96.98
2022-11-23T14:54:27.994Z,97.13
2022-11-23T14:57:44.254Z,97.21
2022-11-23T15:00:48.256Z,96.95
2022-11-23T15:04:08.584Z,97.32
2022-11-23T15:07:11.305Z,97.28
2022-11-23T15:10:45.070Z,96.93
2022-11-23T15:13:49.399Z,96.87
2022-11-23T15:16:52.467Z,96.57
2022-11-23T15:20:02.240Z,96.27
2022-11-23T15:23:05.630Z,96.14
2022-11-23T15:26:41.983Z,96.06
2022-11-23T15:29:51.806Z,95.87
2022-11-23T15:33:01.484Z,95.67
2022-11-23T15:36:05.100Z,95.36
2022-11-23T15:39:14.446Z,95.22
2022-11-23T15:42:20.329Z,94.92
2022-11-23T15:45:35.974Z,94.77
2022-11-23T15:48:39.078Z,94.54
2022-11-23T15:51:44.343Z,94.40
2022-11-23T15:54:47.999Z,94.38
2022-11-23T15:57:55.626Z,94.39
2022-11-23T16:01:07.444Z,94.17
2022-11-23T16:04:35.679Z,94.46
2022-11-23T16:08:00.428Z,94.55
2022-11-23T16:11:04.802Z,94.12
2022-11-23T16:14:35.048Z,94.34
2022-11-23T16:17:38.494Z,94.22
2022-11-23T16:20:45.551Z,94.55
2022-11-23T16:23:56.240Z,94.43
2022-11-23T16:26:59.326Z,94.79
2022-11-23T16:30:04.570Z,94.87
2022-11-23T16:33:15.333Z,94.75
2022-11-23T16:36:18.601Z,94.72
2022-11-23T16:39:21.186Z,94.84
2022-11-23T16:42:24.360Z,94.91
2022-11-23T16:45:27.492Z,94.77
2022-11-23T16:48:39.124Z,94.65
2022-11-23T16:51:41.956Z,94.79
2022-11-23T16:54:51.889Z,94.61
2022-11-23T16:57:55.109Z,94.74
2022-11-23T17:00:58.446Z,94.77
2022-11-23T17:04:02.062Z,94.56
2022-11-23T17:07:05.597Z,94.60
2022-11-23T17:10:09.131Z,94.28
2022-11-23T17:13:27.578Z,94.29
2022-11-23T17:16:31.259Z,94.12
2022-11-23T17:19:39.496Z,93.95
2022-11-23T17:22:42.726Z,93.96
2022-11-23T17:25:45.802Z,93.88
2022-11-23T17:28:48.495Z,93.61
2022-11-23T17:31:52.396Z,93.64
2022-11-23T17:34:55.521Z,93.73
2022-11-23T17:37:58.560Z,93.90
2022-11-23T17:41:01.521Z,93.95
2022-11-23T17:44:05.542Z,94.00
2022-11-23T17:47:25.796Z,93.78
2022-11-23T17:50:28.882Z,93.90
2022-11-23T17:53:34.675Z,94.11
2022-11-23T17:56:38.726Z,93.87
2022-11-23T17:59:41.366Z,94.34
2022-11-23T18:02:44.574Z,94.69
2022-11-23T18:05:47.916Z,94.61
2022-11-23T18:08:54.927Z,94.47
2022-11-23T18:11:58.409Z,94.23
2022-11-23T18:15:01.659Z,94.19
2022-11-23T18:18:05.164Z,94.11
2022-11-23T18:21:10.350Z,94.03
2022-11-23T18:24:13.826Z,94.21
2022-11-23T18:27:16.930Z,93.97
2022-11-23T18:30:20.316Z,93.77
2022-11-23T18:33:24.924Z,93.68
2022-11-23T18:36:28.232Z,93.48
2022-11-23T18:39:31.490Z,93.57
2022-11-23T18:42:34.994Z,93.85
2022-11-23T18:45:37.715Z,93.90
2022-11-23T18:48:41.093Z,94.05
2022-11-23T18:51:44.283Z,93.85
2022-11-23T18:54:47.649Z,93.89
2022-11-23T18:57:55.559Z,93.62
2022-11-23T19:00:58.856Z,94.03
2022-11-23T19:04:02.264Z,94.03
2022-11-23T19:07:06.149Z,94.34
2022-11-23T19:10:09.749Z,94.31
2022-11-23T19:13:13.022Z,93.97
2022-11-23T19:16:22.006Z,94.23
2022-11-23T19:19:25.426Z,94.00
2022-11-23T19:22:28.590Z,94.31
2022-11-23T19:25:32.020Z,94.04
2022-11-23T19:28:35.566Z,94.02
2022-11-23T19:31:40.624Z,94.41
2022-11-23T19:34:44.049Z,94.72
2022-11-23T19:37:48.062Z,94.97
2022-11-23T19:40:55.559Z,94.92
2022-11-23T19:44:00.276Z,94.91
2022-11-23T19:47:08.512Z,95.13
2022-11-23T19:50:15.705Z,94.98
2022-11-23T19:53:18.866Z,94.90
2022-11-23T19:56:28.190Z,94.74
2022-11-23T19:59:31.870Z,94.69
2022-11-23T20:02:36.090Z,94.37
2022-11-23T20:05:52.855Z,94.01
2022-11-23T20:08:56.210Z,94.09
2022-11-23T20:11:59.653Z,94.06
2022-11-23T20:15:03.776Z,93.92
2022-11-23T20:18:07.716Z,93.52
2022-11-23T20:21:16.037Z,93.45
2022-11-23T20:24:19.577Z,93.29
2022-11-23T20:27:22.749Z,93.11
2022-11-23T20:30:26.110Z,92.90
2022-11-23T20:33:29.467Z,93.03
2022-11-23T20:36:35.642Z,93.50
2022-11-23T20:39:38.734Z,93.16
2022-11-23T20:42:42.169Z,93.11
2022-11-23T20:45:45.108Z,93.27
2022-11-23T20:48:48.873Z,94.18
2022-11-23T20:51:51.671Z,94.32
2022-11-23T20:54:54.955Z,94.44
2022-11-23T20:57:59.660Z,95.25
2022-11-23T21:01:05.140Z,95.02
2022-11-23T21:04:09.604Z,94.92
2022-11-23T21:07:12.870Z,95.19
2022-11-23T21:10:35.554Z,95.40
2022-11-23T21:13:56.932Z,95.67
2022-11-23T21:17:00.509Z,95.31
2022-11-23T21:20:03.914Z,95.36
2022-11-23T21:23:07.016Z,95.39
2022-11-23T21:26:09.919Z,95.67
2022-11-23T21:29:13.009Z,96.08
2022-11-23T21:32:15.808Z,95.88
2022-11-23T21:35:18.380Z,95.81
2022-11-23T21:38:23.628Z,95.62
2022-11-23T21:41:26.274Z,95.96
2022-11-23T21:44:29.438Z,95.56
2022-11-23T21:47:31.989Z,95.38
2022-11-23T21:50:36.349Z,95.30
2022-11-23T21:53:39.430Z,95.49
2022-11-23T21:56:43.909Z,95.09
2022-11-23T21:59:46.524Z,94.70
2022-11-23T22:02:49.488Z,94.59
2022-11-23T22:05:57.183Z,94.76
2022-11-23T22:09:05.046Z,95.36
2022-11-23T22:12:08.521Z,95.24
2022-11-23T22:15:12.407Z,95.32
2022-11-23T22:18:15.381Z,94.83
2022-11-23T22:21:19.902Z,94.73
2022-11-23T22:24:22.952Z,94.64
2022-11-23T22:27:25.528Z,94.46
2022-11-23T22:30:28.431Z,94.17
2022-11-23T22:33:31.624Z,94.26
2022-11-23T22:36:34.633Z,94.03
2022-11-23T22:39:37.248Z,94.11
2022-11-23T22:42:40.200Z,94.09
2022-11-23T22:45:42.927Z,93.62
2022-11-23T22:48:47.491Z,93.58
2022-11-23T22:51:50.132Z,93.32
2022-11-23T22:54:53.091Z,92.76
2022-11-23T22:57:55.748Z,92.63
2022-11-23T23:01:06.238Z,92.71
2022-11-23T23:04:08.961Z,92.35
2022-11-23T23:07:11.887Z,92.51
2022-11-23T23:10:14.515Z,92.76
2022-11-23T23:13:18.181Z,93.31
2022-11-23T23:16:21.624Z,93.46
2022-11-23T23:19:26.120Z,93.70
2022-11-23T23:22:28.903Z,93.51
2022-11-23T23:25:32.464Z,93.78
2022-11-23T23:28:35.923Z,93.74
2022-11-23T23:31:39.344Z,94.17
2022-11-23T23:34:41.891Z,94.05
2022-11-23T23:37:44.872Z,94.04
2022-11-23T23:40:47.475Z,93.99
2022-11-23T23:43:50.403Z,94.07
2022-11-23T23:46:53.043Z,93.88
2022-11-23T23:49:55.980Z,93.67
2022-11-23T23:52:58.580Z,93.64
2022-11-23T23:56:04.153Z,93.95
2022-11-23T23:59:06.782Z,94.07
